sensor_id;sensor_type;location;lat;lon;timestamp;P1;durP1;ratioP1;P2;durP2;ratioP2
50319;SDS011;36226;53.464;9.852;2023-07-13T00:02:14;3.38;;;1.50;;
50319;SDS011;36226;53.464;9.852;2023-07-13T00:04:40;2.30;;;1.40;;
50319;SDS011;36226;53.464;9.852;2023-07-13T00:07:05;3.03;;;1.45;;
50319;SDS011;36226;53.464;9.852;2023-07-13T00:09:30;2.05;;;1.48;;
50319;SDS011;36226;53.464;9.852;2023-07-13T00:11:56;1.90;;;1.55;;
50319;SDS011;36226;53.464;9.852;2023-07-13T00:14:23;10.07;;;1.52;;
50319;SDS011;36226;53.464;9.852;2023-07-13T00:16:49;4.00;;;1.70;;
50319;SDS011;36226;53.464;9.852;2023-07-13T00:19:15;2.60;;;1.73;;
50319;SDS011;36226;53.464;9.852;2023-07-13T00:21:40;3.83;;;1.80;;
50319;SDS011;36226;53.464;9.852;2023-07-13T00:24:07;3.50;;;1.60;;
50319;SDS011;36226;53.464;9.852;2023-07-13T00:26:33;4.25;;;1.98;;
50319;SDS011;36226;53.464;9.852;2023-07-13T00:28:59;3.85;;;2.20;;
50319;SDS011;36226;53.464;9.852;2023-07-13T00:31:25;3.20;;;2.13;;
50319;SDS011;36226;53.464;9.852;2023-07-13T00:33:50;2.58;;;2.08;;
50319;SDS011;36226;53.464;9.852;2023-07-13T00:36:16;5.93;;;2.85;;
50319;SDS011;36226;53.464;9.852;2023-07-13T00:38:41;5.32;;;2.33;;
50319;SDS011;36226;53.464;9.852;2023-07-13T00:41:07;4.93;;;2.53;;
50319;SDS011;36226;53.464;9.852;2023-07-13T00:43:33;6.60;;;2.92;;
50319;SDS011;36226;53.464;9.852;2023-07-13T00:48:25;4.82;;;3.30;;
50319;SDS011;36226;53.464;9.852;2023-07-13T00:50:53;5.63;;;3.42;;
50319;SDS011;36226;53.464;9.852;2023-07-13T00:53:21;6.00;;;3.42;;
50319;SDS011;36226;53.464;9.852;2023-07-13T00:55:47;5.35;;;3.78;;
50319;SDS011;36226;53.464;9.852;2023-07-13T00:58:14;6.13;;;3.45;;
50319;SDS011;36226;53.464;9.852;2023-07-13T01:00:39;5.15;;;3.72;;
50319;SDS011;36226;53.464;9.852;2023-07-13T01:03:05;8.30;;;3.70;;
50319;SDS011;36226;53.464;9.852;2023-07-13T01:05:32;5.07;;;3.40;;
50319;SDS011;36226;53.464;9.852;2023-07-13T01:07:58;5.82;;;3.65;;
50319;SDS011;36226;53.464;9.852;2023-07-13T01:10:25;6.43;;;3.47;;
50319;SDS011;36226;53.464;9.852;2023-07-13T01:12:50;7.35;;;3.50;;
50319;SDS011;36226;53.464;9.852;2023-07-13T01:15:36;3.95;;;3.20;;
50319;SDS011;36226;53.464;9.852;2023-07-13T01:18:09;6.57;;;3.63;;
50319;SDS011;36226;53.464;9.852;2023-07-13T01:20:40;5.72;;;3.90;;
50319;SDS011;36226;53.464;9.852;2023-07-13T01:23:08;7.20;;;3.75;;
50319;SDS011;36226;53.464;9.852;2023-07-13T01:25:34;5.32;;;3.75;;
50319;SDS011;36226;53.464;9.852;2023-07-13T01:28:02;8.20;;;3.90;;
50319;SDS011;36226;53.464;9.852;2023-07-13T01:30:28;6.00;;;3.78;;
50319;SDS011;36226;53.464;9.852;2023-07-13T01:32:54;5.47;;;4.05;;
50319;SDS011;36226;53.464;9.852;2023-07-13T01:35:19;7.75;;;4.05;;
50319;SDS011;36226;53.464;9.852;2023-07-13T01:37:44;5.07;;;4.20;;
50319;SDS011;36226;53.464;9.852;2023-07-13T01:40:10;5.57;;;3.90;;
50319;SDS011;36226;53.464;9.852;2023-07-13T01:42:37;8.35;;;4.45;;
50319;SDS011;36226;53.464;9.852;2023-07-13T01:45:03;5.40;;;3.90;;
50319;SDS011;36226;53.464;9.852;2023-07-13T01:47:28;6.05;;;4.15;;
50319;SDS011;36226;53.464;9.852;2023-07-13T01:49:55;5.20;;;3.90;;
50319;SDS011;36226;53.464;9.852;2023-07-13T01:52:21;6.60;;;4.07;;
50319;SDS011;36226;53.464;9.852;2023-07-13T01:54:47;7.13;;;3.90;;
50319;SDS011;36226;53.464;9.852;2023-07-13T01:57:12;5.60;;;4.20;;
50319;SDS011;36226;53.464;9.852;2023-07-13T01:59:37;6.57;;;4.45;;
50319;SDS011;36226;53.464;9.852;2023-07-13T02:02:03;6.80;;;4.30;;
50319;SDS011;36226;53.464;9.852;2023-07-13T02:04:28;6.75;;;4.53;;
50319;SDS011;36226;53.464;9.852;2023-07-13T02:06:54;5.85;;;4.00;;
50319;SDS011;36226;53.464;9.852;2023-07-13T02:09:20;8.48;;;4.07;;
50319;SDS011;36226;53.464;9.852;2023-07-13T02:11:45;6.80;;;4.00;;
50319;SDS011;36226;53.464;9.852;2023-07-13T02:14:11;8.77;;;4.10;;
50319;SDS011;36226;53.464;9.852;2023-07-13T02:16:36;6.25;;;4.05;;
50319;SDS011;36226;53.464;9.852;2023-07-13T02:19:02;5.97;;;3.80;;
50319;SDS011;36226;53.464;9.852;2023-07-13T02:21:27;6.60;;;4.30;;
50319;SDS011;36226;53.464;9.852;2023-07-13T02:23:52;7.40;;;4.18;;
50319;SDS011;36226;53.464;9.852;2023-07-13T02:26:18;9.38;;;4.35;;
50319;SDS011;36226;53.464;9.852;2023-07-13T02:28:43;5.20;;;3.88;;
50319;SDS011;36226;53.464;9.852;2023-07-13T02:31:10;6.35;;;4.00;;
50319;SDS011;36226;53.464;9.852;2023-07-13T02:33:36;6.97;;;4.03;;
50319;SDS011;36226;53.464;9.852;2023-07-13T02:36:02;5.93;;;4.40;;
50319;SDS011;36226;53.464;9.852;2023-07-13T02:38:30;6.85;;;3.88;;
50319;SDS011;36226;53.464;9.852;2023-07-13T02:40:58;6.15;;;4.40;;
50319;SDS011;36226;53.464;9.852;2023-07-13T02:43:24;7.10;;;4.03;;
50319;SDS011;36226;53.464;9.852;2023-07-13T02:45:49;8.13;;;4.72;;
50319;SDS011;36226;53.464;9.852;2023-07-13T02:48:15;4.75;;;4.10;;
50319;SDS011;36226;53.464;9.852;2023-07-13T02:50:40;6.22;;;4.25;;
50319;SDS011;36226;53.464;9.852;2023-07-13T02:53:05;7.75;;;4.10;;
50319;SDS011;36226;53.464;9.852;2023-07-13T02:55:31;8.25;;;3.88;;
50319;SDS011;36226;53.464;9.852;2023-07-13T02:57:56;4.85;;;3.80;;
50319;SDS011;36226;53.464;9.852;2023-07-13T03:00:22;6.40;;;4.25;;
50319;SDS011;36226;53.464;9.852;2023-07-13T03:02:48;10.40;;;4.20;;
50319;SDS011;36226;53.464;9.852;2023-07-13T03:05:13;8.90;;;4.82;;
50319;SDS011;36226;53.464;9.852;2023-07-13T03:07:39;5.80;;;3.60;;
50319;SDS011;36226;53.464;9.852;2023-07-13T03:10:05;6.75;;;3.90;;
50319;SDS011;36226;53.464;9.852;2023-07-13T03:12:31;7.47;;;3.95;;
50319;SDS011;36226;53.464;9.852;2023-07-13T03:14:57;7.22;;;4.15;;
50319;SDS011;36226;53.464;9.852;2023-07-13T03:17:23;7.75;;;3.75;;
50319;SDS011;36226;53.464;9.852;2023-07-13T03:19:48;3.70;;;3.17;;
50319;SDS011;36226;53.464;9.852;2023-07-13T03:22:16;4.53;;;3.72;;
50319;SDS011;36226;53.464;9.852;2023-07-13T03:24:42;8.70;;;4.13;;
50319;SDS011;36226;53.464;9.852;2023-07-13T03:27:07;5.75;;;3.75;;
50319;SDS011;36226;53.464;9.852;2023-07-13T03:29:32;8.35;;;3.60;;
50319;SDS011;36226;53.464;9.852;2023-07-13T03:31:58;6.97;;;3.58;;
50319;SDS011;36226;53.464;9.852;2023-07-13T03:34:23;6.38;;;3.50;;
50319;SDS011;36226;53.464;9.852;2023-07-13T03:36:49;5.85;;;3.33;;
50319;SDS011;36226;53.464;9.852;2023-07-13T03:39:14;5.28;;;3.05;;
50319;SDS011;36226;53.464;9.852;2023-07-13T03:41:40;7.00;;;3.22;;
50319;SDS011;36226;53.464;9.852;2023-07-13T03:44:05;6.13;;;3.28;;
50319;SDS011;36226;53.464;9.852;2023-07-13T03:46:31;5.22;;;3.40;;
50319;SDS011;36226;53.464;9.852;2023-07-13T03:48:58;10.90;;;3.53;;
50319;SDS011;36226;53.464;9.852;2023-07-13T03:51:23;4.93;;;3.25;;
50319;SDS011;36226;53.464;9.852;2023-07-13T03:53:49;6.20;;;3.65;;
50319;SDS011;36226;53.464;9.852;2023-07-13T03:56:14;5.55;;;3.80;;
50319;SDS011;36226;53.464;9.852;2023-07-13T03:58:41;6.40;;;3.85;;
50319;SDS011;36226;53.464;9.852;2023-07-13T04:01:08;7.10;;;3.63;;
50319;SDS011;36226;53.464;9.852;2023-07-13T04:03:34;7.07;;;3.80;;
50319;SDS011;36226;53.464;9.852;2023-07-13T04:06:00;8.60;;;4.18;;
50319;SDS011;36226;53.464;9.852;2023-07-13T04:08:30;6.38;;;4.10;;
50319;SDS011;36226;53.464;9.852;2023-07-13T04:10:57;8.25;;;4.10;;
50319;SDS011;36226;53.464;9.852;2023-07-13T04:13:23;7.05;;;3.53;;
50319;SDS011;36226;53.464;9.852;2023-07-13T04:15:48;8.65;;;3.80;;
50319;SDS011;36226;53.464;9.852;2023-07-13T04:18:14;6.50;;;4.00;;
50319;SDS011;36226;53.464;9.852;2023-07-13T04:20:39;9.65;;;3.95;;
50319;SDS011;36226;53.464;9.852;2023-07-13T04:23:05;8.05;;;3.70;;
50319;SDS011;36226;53.464;9.852;2023-07-13T04:25:30;7.55;;;3.88;;
50319;SDS011;36226;53.464;9.852;2023-07-13T04:27:55;11.40;;;3.80;;
50319;SDS011;36226;53.464;9.852;2023-07-13T04:30:21;6.53;;;4.20;;
50319;SDS011;36226;53.464;9.852;2023-07-13T04:32:47;9.82;;;4.13;;
50319;SDS011;36226;53.464;9.852;2023-07-13T04:35:14;7.80;;;4.30;;
50319;SDS011;36226;53.464;9.852;2023-07-13T04:37:40;9.70;;;4.40;;
50319;SDS011;36226;53.464;9.852;2023-07-13T04:40:05;8.57;;;4.40;;
50319;SDS011;36226;53.464;9.852;2023-07-13T04:42:35;7.80;;;4.25;;
50319;SDS011;36226;53.464;9.852;2023-07-13T04:45:00;9.40;;;5.00;;
50319;SDS011;36226;53.464;9.852;2023-07-13T04:47:26;11.32;;;5.18;;
50319;SDS011;36226;53.464;9.852;2023-07-13T04:49:51;6.70;;;4.43;;
50319;SDS011;36226;53.464;9.852;2023-07-13T04:52:16;9.68;;;4.72;;
50319;SDS011;36226;53.464;9.852;2023-07-13T04:54:42;8.57;;;4.32;;
50319;SDS011;36226;53.464;9.852;2023-07-13T04:57:07;10.65;;;4.85;;
50319;SDS011;36226;53.464;9.852;2023-07-13T04:59:33;8.55;;;4.60;;
50319;SDS011;36226;53.464;9.852;2023-07-13T05:01:58;8.55;;;4.88;;
50319;SDS011;36226;53.464;9.852;2023-07-13T05:04:24;9.40;;;4.63;;
50319;SDS011;36226;53.464;9.852;2023-07-13T05:06:49;9.38;;;4.60;;
50319;SDS011;36226;53.464;9.852;2023-07-13T05:09:14;10.48;;;4.82;;
50319;SDS011;36226;53.464;9.852;2023-07-13T05:11:40;8.13;;;4.35;;
50319;SDS011;36226;53.464;9.852;2023-07-13T05:14:05;10.63;;;4.20;;
50319;SDS011;36226;53.464;9.852;2023-07-13T05:16:31;8.25;;;4.35;;
50319;SDS011;36226;53.464;9.852;2023-07-13T05:18:57;10.70;;;4.53;;
50319;SDS011;36226;53.464;9.852;2023-07-13T05:21:23;11.40;;;4.60;;
50319;SDS011;36226;53.464;9.852;2023-07-13T05:23:48;10.45;;;4.43;;
50319;SDS011;36226;53.464;9.852;2023-07-13T05:26:13;7.63;;;3.85;;
50319;SDS011;36226;53.464;9.852;2023-07-13T05:28:39;9.70;;;4.70;;
50319;SDS011;36226;53.464;9.852;2023-07-13T05:31:04;9.15;;;4.25;;
50319;SDS011;36226;53.464;9.852;2023-07-13T05:33:30;10.10;;;4.13;;
50319;SDS011;36226;53.464;9.852;2023-07-13T05:35:56;8.38;;;4.10;;
50319;SDS011;36226;53.464;9.852;2023-07-13T05:38:21;8.48;;;5.20;;
50319;SDS011;36226;53.464;9.852;2023-07-13T05:40:47;9.88;;;3.97;;
50319;SDS011;36226;53.464;9.852;2023-07-13T05:43:12;10.90;;;4.30;;
50319;SDS011;36226;53.464;9.852;2023-07-13T05:45:38;8.23;;;4.28;;
50319;SDS011;36226;53.464;9.852;2023-07-13T05:48:04;9.45;;;4.38;;
50319;SDS011;36226;53.464;9.852;2023-07-13T05:50:29;13.25;;;4.63;;
50319;SDS011;36226;53.464;9.852;2023-07-13T05:52:55;10.20;;;4.25;;
50319;SDS011;36226;53.464;9.852;2023-07-13T05:55:21;12.05;;;4.40;;
50319;SDS011;36226;53.464;9.852;2023-07-13T05:57:47;9.30;;;4.18;;
50319;SDS011;36226;53.464;9.852;2023-07-13T06:00:12;10.98;;;3.92;;
50319;SDS011;36226;53.464;9.852;2023-07-13T06:02:39;8.70;;;4.10;;
50319;SDS011;36226;53.464;9.852;2023-07-13T06:05:04;11.77;;;4.30;;
50319;SDS011;36226;53.464;9.852;2023-07-13T06:07:30;10.93;;;4.00;;
50319;SDS011;36226;53.464;9.852;2023-07-13T06:09:55;12.43;;;4.25;;
50319;SDS011;36226;53.464;9.852;2023-07-13T06:12:21;9.05;;;4.15;;
50319;SDS011;36226;53.464;9.852;2023-07-13T06:14:46;8.55;;;3.70;;
50319;SDS011;36226;53.464;9.852;2023-07-13T06:17:12;10.07;;;3.63;;
50319;SDS011;36226;53.464;9.852;2023-07-13T06:19:37;14.82;;;4.20;;
50319;SDS011;36226;53.464;9.852;2023-07-13T06:22:02;12.30;;;3.83;;
50319;SDS011;36226;53.464;9.852;2023-07-13T06:24:28;9.68;;;3.90;;
50319;SDS011;36226;53.464;9.852;2023-07-13T06:26:53;9.77;;;3.40;;
50319;SDS011;36226;53.464;9.852;2023-07-13T06:29:19;11.15;;;3.88;;
50319;SDS011;36226;53.464;9.852;2023-07-13T06:31:44;11.70;;;3.33;;
50319;SDS011;36226;53.464;9.852;2023-07-13T06:34:09;13.05;;;2.83;;
50319;SDS011;36226;53.464;9.852;2023-07-13T06:36:35;12.10;;;3.40;;
50319;SDS011;36226;53.464;9.852;2023-07-13T06:39:01;8.88;;;3.50;;
50319;SDS011;36226;53.464;9.852;2023-07-13T06:41:27;11.07;;;3.05;;
50319;SDS011;36226;53.464;9.852;2023-07-13T06:43:52;10.45;;;3.42;;
50319;SDS011;36226;53.464;9.852;2023-07-13T06:46:19;9.15;;;3.33;;
50319;SDS011;36226;53.464;9.852;2023-07-13T06:48:46;11.73;;;3.28;;
50319;SDS011;36226;53.464;9.852;2023-07-13T06:51:11;12.65;;;3.53;;
50319;SDS011;36226;53.464;9.852;2023-07-13T06:53:36;14.27;;;4.22;;
50319;SDS011;36226;53.464;9.852;2023-07-13T06:56:02;11.85;;;3.95;;
50319;SDS011;36226;53.464;9.852;2023-07-13T06:58:27;17.00;;;3.90;;
50319;SDS011;36226;53.464;9.852;2023-07-13T07:00:53;10.52;;;3.30;;
50319;SDS011;36226;53.464;9.852;2023-07-13T07:03:18;10.32;;;2.83;;
50319;SDS011;36226;53.464;9.852;2023-07-13T07:05:44;7.53;;;2.85;;
50319;SDS011;36226;53.464;9.852;2023-07-13T07:08:09;15.00;;;3.10;;
50319;SDS011;36226;53.464;9.852;2023-07-13T07:10:34;11.15;;;2.90;;
50319;SDS011;36226;53.464;9.852;2023-07-13T07:13:00;10.90;;;3.20;;
50319;SDS011;36226;53.464;9.852;2023-07-13T07:15:26;9.35;;;3.42;;
50319;SDS011;36226;53.464;9.852;2023-07-13T07:17:52;13.10;;;2.95;;
50319;SDS011;36226;53.464;9.852;2023-07-13T07:20:17;12.55;;;2.92;;
50319;SDS011;36226;53.464;9.852;2023-07-13T07:22:43;10.32;;;2.65;;
50319;SDS011;36226;53.464;9.852;2023-07-13T07:25:08;11.30;;;2.75;;
50319;SDS011;36226;53.464;9.852;2023-07-13T07:27:33;8.52;;;2.92;;
50319;SDS011;36226;53.464;9.852;2023-07-13T07:29:59;12.27;;;3.10;;
50319;SDS011;36226;53.464;9.852;2023-07-13T07:32:24;10.15;;;2.80;;
50319;SDS011;36226;53.464;9.852;2023-07-13T07:34:50;8.68;;;2.60;;
50319;SDS011;36226;53.464;9.852;2023-07-13T07:37:15;7.53;;;2.60;;
50319;SDS011;36226;53.464;9.852;2023-07-13T07:39:40;14.40;;;3.30;;
50319;SDS011;36226;53.464;9.852;2023-07-13T07:42:07;9.57;;;3.10;;
50319;SDS011;36226;53.464;9.852;2023-07-13T07:44:32;9.77;;;2.72;;
50319;SDS011;36226;53.464;9.852;2023-07-13T07:46:58;14.23;;;3.33;;
50319;SDS011;36226;53.464;9.852;2023-07-13T07:49:24;13.05;;;3.40;;
50319;SDS011;36226;53.464;9.852;2023-07-13T07:51:49;10.35;;;2.80;;
50319;SDS011;36226;53.464;9.852;2023-07-13T07:54:15;8.32;;;2.53;;
50319;SDS011;36226;53.464;9.852;2023-07-13T07:56:41;7.70;;;2.80;;
50319;SDS011;36226;53.464;9.852;2023-07-13T07:59:06;9.02;;;2.92;;
50319;SDS011;36226;53.464;9.852;2023-07-13T08:01:31;14.98;;;3.10;;
50319;SDS011;36226;53.464;9.852;2023-07-13T08:03:57;12.63;;;3.33;;
50319;SDS011;36226;53.464;9.852;2023-07-13T08:06:22;8.13;;;3.25;;
50319;SDS011;36226;53.464;9.852;2023-07-13T08:08:48;10.48;;;3.17;;
50319;SDS011;36226;53.464;9.852;2023-07-13T08:11:13;7.72;;;3.33;;
50319;SDS011;36226;53.464;9.852;2023-07-13T08:13:38;8.32;;;2.55;;
50319;SDS011;36226;53.464;9.852;2023-07-13T08:16:04;8.63;;;2.88;;
50319;SDS011;36226;53.464;9.852;2023-07-13T08:18:30;11.02;;;3.60;;
50319;SDS011;36226;53.464;9.852;2023-07-13T08:20:56;8.98;;;3.15;;
50319;SDS011;36226;53.464;9.852;2023-07-13T08:23:22;8.40;;;2.83;;
50319;SDS011;36226;53.464;9.852;2023-07-13T08:25:54;8.30;;;3.00;;
50319;SDS011;36226;53.464;9.852;2023-07-13T08:28:20;9.50;;;3.35;;
50319;SDS011;36226;53.464;9.852;2023-07-13T08:30:46;12.85;;;3.33;;
50319;SDS011;36226;53.464;9.852;2023-07-13T08:33:15;7.93;;;2.80;;
50319;SDS011;36226;53.464;9.852;2023-07-13T08:35:41;12.73;;;3.25;;
50319;SDS011;36226;53.464;9.852;2023-07-13T08:38:06;11.27;;;3.33;;
50319;SDS011;36226;53.464;9.852;2023-07-13T08:40:32;7.80;;;3.42;;
50319;SDS011;36226;53.464;9.852;2023-07-13T08:42:59;12.35;;;3.35;;
50319;SDS011;36226;53.464;9.852;2023-07-13T08:45:35;8.57;;;3.03;;
50319;SDS011;36226;53.464;9.852;2023-07-13T08:48:13;6.38;;;3.10;;
50319;SDS011;36226;53.464;9.852;2023-07-13T08:53:50;10.90;;;3.00;;
50319;SDS011;36226;53.464;9.852;2023-07-13T08:56:20;11.30;;;3.13;;
50319;SDS011;36226;53.464;9.852;2023-07-13T08:58:51;8.55;;;3.30;;
50319;SDS011;36226;53.464;9.852;2023-07-13T09:01:22;8.50;;;2.92;;
50319;SDS011;36226;53.464;9.852;2023-07-13T09:14:42;7.00;;;2.80;;
50319;SDS011;36226;53.464;9.852;2023-07-13T09:20:51;5.82;;;2.78;;
50319;SDS011;36226;53.464;9.852;2023-07-13T09:22:59;9.10;;;3.40;;
50319;SDS011;36226;53.464;9.852;2023-07-13T09:25:29;7.18;;;3.17;;
50319;SDS011;36226;53.464;9.852;2023-07-13T09:27:58;9.95;;;3.15;;
50319;SDS011;36226;53.464;9.852;2023-07-13T09:33:09;6.05;;;3.17;;
50319;SDS011;36226;53.464;9.852;2023-07-13T09:35:35;7.13;;;3.75;;
50319;SDS011;36226;53.464;9.852;2023-07-13T09:43:10;5.22;;;2.40;;
50319;SDS011;36226;53.464;9.852;2023-07-13T09:45:38;9.07;;;2.80;;
50319;SDS011;36226;53.464;9.852;2023-07-13T09:48:11;8.30;;;2.40;;
50319;SDS011;36226;53.464;9.852;2023-07-13T09:50:38;6.85;;;2.40;;
50319;SDS011;36226;53.464;9.852;2023-07-13T09:53:04;9.77;;;2.60;;
50319;SDS011;36226;53.464;9.852;2023-07-13T09:55:38;7.13;;;2.35;;
50319;SDS011;36226;53.464;9.852;2023-07-13T09:58:05;7.32;;;2.47;;
50319;SDS011;36226;53.464;9.852;2023-07-13T10:00:37;6.28;;;2.88;;
50319;SDS011;36226;53.464;9.852;2023-07-13T10:05:37;6.57;;;2.03;;
50319;SDS011;36226;53.464;9.852;2023-07-13T10:08:11;8.32;;;2.15;;
50319;SDS011;36226;53.464;9.852;2023-07-13T10:10:41;8.88;;;2.08;;
50319;SDS011;36226;53.464;9.852;2023-07-13T10:13:20;6.68;;;2.10;;
50319;SDS011;36226;53.464;9.852;2023-07-13T10:16:10;5.10;;;1.70;;
50319;SDS011;36226;53.464;9.852;2023-07-13T10:18:55;8.50;;;2.10;;
50319;SDS011;36226;53.464;9.852;2023-07-13T10:21:26;4.55;;;1.60;;
50319;SDS011;36226;53.464;9.852;2023-07-13T10:23:55;3.25;;;1.40;;
50319;SDS011;36226;53.464;9.852;2023-07-13T10:26:29;4.28;;;1.65;;
50319;SDS011;36226;53.464;9.852;2023-07-13T10:28:59;3.97;;;1.40;;
50319;SDS011;36226;53.464;9.852;2023-07-13T10:31:29;4.47;;;1.50;;
50319;SDS011;36226;53.464;9.852;2023-07-13T10:33:55;2.55;;;1.60;;
50319;SDS011;36226;53.464;9.852;2023-07-13T10:39:09;5.30;;;1.63;;
50319;SDS011;36226;53.464;9.852;2023-07-13T10:41:49;4.57;;;1.60;;
50319;SDS011;36226;53.464;9.852;2023-07-13T10:44:20;5.13;;;1.60;;
50319;SDS011;36226;53.464;9.852;2023-07-13T10:46:51;2.65;;;1.33;;
50319;SDS011;36226;53.464;9.852;2023-07-13T10:49:18;3.97;;;1.52;;
50319;SDS011;36226;53.464;9.852;2023-07-13T10:51:44;5.10;;;1.60;;
50319;SDS011;36226;53.464;9.852;2023-07-13T10:56:42;5.78;;;1.75;;
50319;SDS011;36226;53.464;9.852;2023-07-13T11:01:40;3.65;;;1.50;;
50319;SDS011;36226;53.464;9.852;2023-07-13T11:04:13;5.72;;;1.40;;
50319;SDS011;36226;53.464;9.852;2023-07-13T11:06:40;5.85;;;1.50;;
50319;SDS011;36226;53.464;9.852;2023-07-13T11:11:46;3.78;;;1.67;;
50319;SDS011;36226;53.464;9.852;2023-07-13T11:16:56;3.92;;;1.70;;
50319;SDS011;36226;53.464;9.852;2023-07-13T11:24:47;3.88;;;1.58;;
50319;SDS011;36226;53.464;9.852;2023-07-13T11:27:21;4.13;;;1.10;;
50319;SDS011;36226;53.464;9.852;2023-07-13T11:29:50;5.10;;;1.30;;
50319;SDS011;36226;53.464;9.852;2023-07-13T11:32:23;2.92;;;1.27;;
50319;SDS011;36226;53.464;9.852;2023-07-13T11:34:51;4.95;;;1.10;;
50319;SDS011;36226;53.464;9.852;2023-07-13T11:37:18;2.55;;;1.20;;
50319;SDS011;36226;53.464;9.852;2023-07-13T11:39:44;3.70;;;1.70;;
50319;SDS011;36226;53.464;9.852;2023-07-13T11:42:12;3.53;;;1.20;;
50319;SDS011;36226;53.464;9.852;2023-07-13T11:44:46;3.35;;;1.23;;
50319;SDS011;36226;53.464;9.852;2023-07-13T11:47:17;2.35;;;1.20;;
50319;SDS011;36226;53.464;9.852;2023-07-13T11:49:47;3.50;;;1.10;;
50319;SDS011;36226;53.464;9.852;2023-07-13T11:52:14;3.92;;;1.80;;
50319;SDS011;36226;53.464;9.852;2023-07-13T11:54:51;2.92;;;1.13;;
50319;SDS011;36226;53.464;9.852;2023-07-13T11:57:30;2.92;;;1.42;;
50319;SDS011;36226;53.464;9.852;2023-07-13T11:59:59;3.33;;;1.30;;
50319;SDS011;36226;53.464;9.852;2023-07-13T12:02:29;2.67;;;1.25;;
50319;SDS011;36226;53.464;9.852;2023-07-13T12:04:57;2.22;;;1.20;;
50319;SDS011;36226;53.464;9.852;2023-07-13T12:07:23;5.35;;;1.75;;
50319;SDS011;36226;53.464;9.852;2023-07-13T12:09:49;2.10;;;1.00;;
50319;SDS011;36226;53.464;9.852;2023-07-13T12:12:19;7.50;;;0.98;;
50319;SDS011;36226;53.464;9.852;2023-07-13T12:14:45;6.78;;;1.20;;
50319;SDS011;36226;53.464;9.852;2023-07-13T12:17:15;4.03;;;1.15;;
50319;SDS011;36226;53.464;9.852;2023-07-13T12:19:42;4.97;;;1.13;;
50319;SDS011;36226;53.464;9.852;2023-07-13T12:22:11;2.50;;;1.20;;
50319;SDS011;36226;53.464;9.852;2023-07-13T12:24:38;7.90;;;1.77;;
50319;SDS011;36226;53.464;9.852;2023-07-13T12:27:05;2.70;;;1.52;;
50319;SDS011;36226;53.464;9.852;2023-07-13T12:29:32;4.32;;;1.50;;
50319;SDS011;36226;53.464;9.852;2023-07-13T12:31:58;2.83;;;1.13;;
50319;SDS011;36226;53.464;9.852;2023-07-13T12:34:24;4.28;;;1.30;;
50319;SDS011;36226;53.464;9.852;2023-07-13T12:36:54;4.43;;;1.25;;
50319;SDS011;36226;53.464;9.852;2023-07-13T12:39:25;3.03;;;1.35;;
50319;SDS011;36226;53.464;9.852;2023-07-13T12:42:00;3.30;;;1.33;;
50319;SDS011;36226;53.464;9.852;2023-07-13T12:44:41;3.45;;;1.30;;
50319;SDS011;36226;53.464;9.852;2023-07-13T12:47:11;3.28;;;1.58;;
50319;SDS011;36226;53.464;9.852;2023-07-13T12:49:42;5.50;;;1.52;;
50319;SDS011;36226;53.464;9.852;2023-07-13T12:52:14;2.47;;;1.05;;
50319;SDS011;36226;53.464;9.852;2023-07-13T12:54:52;2.33;;;1.17;;
50319;SDS011;36226;53.464;9.852;2023-07-13T12:57:22;4.45;;;1.42;;
50319;SDS011;36226;53.464;9.852;2023-07-13T12:59:50;6.07;;;1.30;;
50319;SDS011;36226;53.464;9.852;2023-07-13T13:02:22;4.43;;;1.63;;
50319;SDS011;36226;53.464;9.852;2023-07-13T13:04:54;4.50;;;1.50;;
50319;SDS011;36226;53.464;9.852;2023-07-13T13:07:23;5.88;;;1.50;;
50319;SDS011;36226;53.464;9.852;2023-07-13T13:09:49;5.50;;;1.70;;
50319;SDS011;36226;53.464;9.852;2023-07-13T13:12:15;2.53;;;1.50;;
50319;SDS011;36226;53.464;9.852;2023-07-13T13:14:42;5.38;;;1.42;;
50319;SDS011;36226;53.464;9.852;2023-07-13T13:17:23;3.45;;;1.40;;
50319;SDS011;36226;53.464;9.852;2023-07-13T13:19:54;3.70;;;1.20;;
50319;SDS011;36226;53.464;9.852;2023-07-13T13:22:21;3.70;;;1.48;;
50319;SDS011;36226;53.464;9.852;2023-07-13T13:24:46;2.58;;;1.15;;
50319;SDS011;36226;53.464;9.852;2023-07-13T13:27:15;3.03;;;1.17;;
50319;SDS011;36226;53.464;9.852;2023-07-13T13:29:42;5.40;;;1.17;;
50319;SDS011;36226;53.464;9.852;2023-07-13T13:32:09;2.22;;;1.33;;
50319;SDS011;36226;53.464;9.852;2023-07-13T13:34:37;2.65;;;1.60;;
50319;SDS011;36226;53.464;9.852;2023-07-13T13:37:02;3.63;;;1.33;;
50319;SDS011;36226;53.464;9.852;2023-07-13T13:39:32;2.17;;;1.40;;
50319;SDS011;36226;53.464;9.852;2023-07-13T13:41:59;3.05;;;1.30;;
50319;SDS011;36226;53.464;9.852;2023-07-13T13:44:24;3.92;;;1.40;;
50319;SDS011;36226;53.464;9.852;2023-07-13T13:46:50;5.22;;;1.60;;
50319;SDS011;36226;53.464;9.852;2023-07-13T13:49:21;3.83;;;1.77;;
50319;SDS011;36226;53.464;9.852;2023-07-13T13:51:48;4.68;;;1.60;;
50319;SDS011;36226;53.464;9.852;2023-07-13T13:54:14;4.20;;;1.60;;
50319;SDS011;36226;53.464;9.852;2023-07-13T13:56:44;3.50;;;1.60;;
50319;SDS011;36226;53.464;9.852;2023-07-13T13:59:12;1.67;;;1.33;;
50319;SDS011;36226;53.464;9.852;2023-07-13T14:01:38;2.30;;;1.27;;
50319;SDS011;36226;53.464;9.852;2023-07-13T14:04:04;3.67;;;1.55;;
50319;SDS011;36226;53.464;9.852;2023-07-13T14:06:30;2.50;;;1.52;;
50319;SDS011;36226;53.464;9.852;2023-07-13T14:08:56;3.70;;;1.40;;
50319;SDS011;36226;53.464;9.852;2023-07-13T14:11:21;1.60;;;1.10;;
50319;SDS011;36226;53.464;9.852;2023-07-13T14:13:48;2.10;;;1.05;;
50319;SDS011;36226;53.464;9.852;2023-07-13T14:16:16;2.03;;;1.35;;
50319;SDS011;36226;53.464;9.852;2023-07-13T14:18:44;2.05;;;1.20;;
50319;SDS011;36226;53.464;9.852;2023-07-13T14:21:11;4.05;;;1.80;;
50319;SDS011;36226;53.464;9.852;2023-07-13T14:23:38;2.45;;;1.20;;
50319;SDS011;36226;53.464;9.852;2023-07-13T14:26:07;2.35;;;1.45;;
50319;SDS011;36226;53.464;9.852;2023-07-13T14:28:35;3.50;;;1.40;;
50319;SDS011;36226;53.464;9.852;2023-07-13T14:31:01;3.35;;;1.50;;
50319;SDS011;36226;53.464;9.852;2023-07-13T14:33:27;1.88;;;1.30;;
50319;SDS011;36226;53.464;9.852;2023-07-13T14:35:52;3.55;;;1.38;;
50319;SDS011;36226;53.464;9.852;2023-07-13T14:38:18;3.47;;;1.50;;
50319;SDS011;36226;53.464;9.852;2023-07-13T14:40:44;3.70;;;1.58;;
50319;SDS011;36226;53.464;9.852;2023-07-13T14:43:13;4.15;;;1.48;;
50319;SDS011;36226;53.464;9.852;2023-07-13T14:45:41;2.67;;;1.70;;
50319;SDS011;36226;53.464;9.852;2023-07-13T14:48:15;4.13;;;2.05;;
50319;SDS011;36226;53.464;9.852;2023-07-13T14:50:43;2.85;;;1.52;;
50319;SDS011;36226;53.464;9.852;2023-07-13T14:53:10;5.80;;;2.13;;
50319;SDS011;36226;53.464;9.852;2023-07-13T14:55:37;4.38;;;1.63;;
50319;SDS011;36226;53.464;9.852;2023-07-13T14:58:02;4.93;;;1.67;;
50319;SDS011;36226;53.464;9.852;2023-07-13T15:00:27;3.30;;;1.80;;
50319;SDS011;36226;53.464;9.852;2023-07-13T15:02:54;5.05;;;1.70;;
50319;SDS011;36226;53.464;9.852;2023-07-13T15:05:23;3.63;;;1.70;;
50319;SDS011;36226;53.464;9.852;2023-07-13T15:07:51;3.08;;;1.67;;
50319;SDS011;36226;53.464;9.852;2023-07-13T15:10:21;3.30;;;1.77;;
50319;SDS011;36226;53.464;9.852;2023-07-13T15:12:50;3.17;;;1.40;;
50319;SDS011;36226;53.464;9.852;2023-07-13T15:15:16;3.03;;;1.70;;
50319;SDS011;36226;53.464;9.852;2023-07-13T15:17:43;2.47;;;1.38;;
50319;SDS011;36226;53.464;9.852;2023-07-13T15:20:21;4.57;;;1.65;;
50319;SDS011;36226;53.464;9.852;2023-07-13T15:22:48;2.17;;;1.40;;
50319;SDS011;36226;53.464;9.852;2023-07-13T15:25:24;2.67;;;1.40;;
50319;SDS011;36226;53.464;9.852;2023-07-13T15:27:51;1.95;;;1.00;;
50319;SDS011;36226;53.464;9.852;2023-07-13T15:30:17;2.63;;;1.05;;
50319;SDS011;36226;53.464;9.852;2023-07-13T15:32:43;2.63;;;1.00;;
50319;SDS011;36226;53.464;9.852;2023-07-13T15:35:13;2.63;;;1.20;;